Terminal Aerodrome Forecast
Issued by NWS

Home | Current Version | Previous Version | Text Only | Print | Product List | Glossary On
Versions: 1 2 3 4 5 6 7 8 9 10 11 12 13 14 15 16 17
000
FTUS43 KIND 241700
TAFLAF
TAF
KLAF 241720Z 2418/2518 15014G21KT P6SM BKN150
     FM250100 12013KT P6SM OVC100
     FM250600 13012KT 4SM -SHRA BR SCT020 OVC040
     FM250800 16008KT 3SM -SHRA BR OVC012
     FM251100 33010KT 3SM -SHRA BR OVC012
     FM251400 33014G26KT P6SM BKN025
     FM251600 33014G26KT P6SM BKN040=

USA.gov is the U.S. government's official web portal to all federal, state and local government web resources and services.